Flight Track Log - Related Links

Times and Time Zones

All times are in EDT time to prevent confusion due to time zone crossing. See the AWI3833 flight status page for this flight to view local times or setup timezone preferences in your user account.


Time Position Orientation Groundspeed Altitude Reporting Facility
EDT Latitude Longitude Course Direction KTS MPH feet Rate Location/Type
Wed 02:49:15 PM 39.8667 -75.2667 323° Northwest 171 197 500  Level Philadelphia TRACON
Wed 02:50:27 PM 39.8500 -75.3500 255° West 229 264 2,400 1,762 Climbing Philadelphia TRACON
Wed 02:51:00 PM 40.0962 -75.4461 323° Northwest  Level FlightAware Approximate
Wed 02:51:21 PM 39.8333 -75.4333 255° West 270 311 4,200  Level Philadelphia TRACON
Wed 02:52:00 PM 40.1742 -75.5241 323° Northwest  Level FlightAware Approximate
Wed 02:52:21 PM 39.8833 -75.5167 308° West 272 313 6,900  Level Philadelphia TRACON
Wed 02:52:54 PM 39.9056 -75.5172 359° North 267 307 7,800 1,935 Climbing New York Center
Wed 02:53:00 PM 40.2489 -75.5983 311° West  Level FlightAware Approximate
Wed 02:53:54 PM 39.9906 -75.5286 354° North 309 356 9,900  Level New York Center
Wed 02:54:00 PM 40.3135 -75.6952 311° West  Level FlightAware Approximate
Wed 02:54:55 PM 40.0733 -75.5425 353° North 302 348 11,800  Level New York Center
Wed 02:55:00 PM 40.3766 -75.7933 323° Northwest  Level FlightAware Approximate
Wed 02:55:54 PM 40.1583 -75.5536 354° North 302 348 13,400  Level New York Center
Wed 02:56:55 PM 40.2442 -75.5950 340° North 331 381 14,000 298 Climbing New York Center
Wed 02:57:55 PM 40.3089 -75.6919 311° West 341 392 14,000  Level New York Center
Wed 02:58:56 PM 40.3678 -75.7806 311° West 341 392 14,000  Level New York Center
Wed 02:59:56 PM 40.4206 -75.8581 312° West 326 375 14,000  Level New York Center
Wed 03:00:56 PM 40.4853 -75.9531 312° West 321 369 14,000  Level New York Center
Wed 03:01:54 PM 40.5381 -76.0306 312° West 321 369 14,000  Level New York Center
Wed 03:02:54 PM 40.5986 -76.1256 310° West 316 364 14,000  Level New York Center
Wed 03:03:55 PM 40.6550 -76.2147 310° West 316 364 14,000  Level New York Center
Wed 03:04:56 PM 40.7367 -76.2458 344° North 289 333 14,000  Level New York Center
Wed 03:05:55 PM 40.8164 -76.2386 North 300 345 14,000  Level New York Center
Wed 03:06:54 PM 40.9042 -76.2319 North 308 354 14,000  Level New York Center
Wed 03:07:55 PM 41.0003 -76.2258 North 315 362 14,000  Level New York Center
Wed 03:08:54 PM 41.0881 -76.2192 North 315 362 14,000  Level New York Center
Wed 03:09:55 PM 41.1675 -76.2117 North 315 362 14,000  Level New York Center
Wed 03:10:55 PM 41.2575 -76.2053 North 315 362 14,000  Level New York Center
Wed 03:11:56 PM 41.3536 -76.1992 North 315 362 14,000  Level New York Center
Wed 03:12:56 PM 41.4433 -76.1925 North 315 362 14,000  Level New York Center
Wed 03:13:56 PM 41.5311 -76.1858 North 315 362 14,000  Level New York Center
Wed 03:14:54 PM 41.6128 -76.1814 North 315 362 14,000 -407 Level New York Center
Wed 03:15:54 PM 41.7003 -76.1800 North 309 356 13,200 -942 Descending New York Center
Wed 03:16:55 PM 41.7939 -76.1819 359° North 309 356 12,100 -1,041 Descending New York Center
Wed 03:17:55 PM 41.8811 -76.1836 359° North 309 356 11,100 -496 Descending New York Center
Wed 03:18:56 PM 41.9664 -76.1850 359° North 309 356 11,100  Level New York Center
Wed 03:19:57 PM 42.0394 -76.1853 360° North 304 350 11,100  Level New York Center
Wed 03:20:54 PM 42.1206 -76.1864 359° North 293 337 11,100  Level New York Center
Wed 03:21:54 PM 42.2017 -76.1875 359° North 287 330 11,100  Level New York Center
Wed 03:22:55 PM 42.2828 -76.1886 359° North 287 330 11,100 -35 Level New York Center
Wed 03:24:47 PM 42.4592 -76.1947 359° North 327 376 11,000 -35 Descending Boston Center
Wed 03:25:47 PM 42.5467 -76.1944 360° North 318 366 11,000  Level Boston Center
Wed 03:26:42 PM 42.6239 -76.1989 358° North 307 353 11,000 -1,041 Level Boston Center
Wed 03:27:48 PM 42.7064 -76.1558 21° North 297 342 8,900 -1,947 Descending Boston Center
Wed 03:28:36 PM 42.7719 -76.1289 17° North 288 331 7,300 -1,934 Descending Boston Center
Wed 03:29:49 PM 42.8608 -76.0858 20° North 278 320 5,000 -1,445 Descending Boston Center
Wed 03:30:53 PM 42.9350 -76.0564 16° North 266 306 4,000 -774 Descending Boston Center
Wed 03:31:53 PM 43.0044 -76.0292 16° North 265 305 3,400 -800 Descending Boston Center
Wed 03:32:53 PM 43.0719 -76.0103 12° North 227 261 2,400 -992 Descending Boston Center
Wed 03:34:06 PM 43.1103 -76.0494 323° Northwest 135 155 1,200 -986 Descending Boston Center

Login

Don't have an account? Register now (free) for customized features, flight alerts, and more!